sensor_id;sensor_type;location;lat;lon;timestamp;P1;durP1;ratioP1;P2;durP2;ratioP2
42886;SDS011;29032;56.028;92.904;2023-04-25T00:05:00;8.17;;;2.80;;
42886;SDS011;29032;56.028;92.904;2023-04-25T00:15:40;7.43;;;3.23;;
42886;SDS011;29032;56.028;92.904;2023-04-25T00:21:01;5.23;;;3.17;;
42886;SDS011;29032;56.028;92.904;2023-04-25T00:26:04;9.17;;;3.23;;
42886;SDS011;29032;56.028;92.904;2023-04-25T00:36:27;6.00;;;3.00;;
42886;SDS011;29032;56.028;92.904;2023-04-25T00:41:48;4.03;;;3.03;;
42886;SDS011;29032;56.028;92.904;2023-04-25T00:57:52;10.30;;;3.67;;
42886;SDS011;29032;56.028;92.904;2023-04-25T01:02:54;6.47;;;3.57;;
42886;SDS011;29032;56.028;92.904;2023-04-25T01:07:58;6.77;;;4.23;;
42886;SDS011;29032;56.028;92.904;2023-04-25T01:13:00;5.80;;;3.70;;
42886;SDS011;29032;56.028;92.904;2023-04-25T01:18:03;11.27;;;5.47;;
42886;SDS011;29032;56.028;92.904;2023-04-25T01:23:08;8.03;;;4.50;;
42886;SDS011;29032;56.028;92.904;2023-04-25T01:28:11;11.60;;;5.60;;
42886;SDS011;29032;56.028;92.904;2023-04-25T01:33:13;7.07;;;4.63;;
42886;SDS011;29032;56.028;92.904;2023-04-25T01:38:18;7.70;;;4.40;;
42886;SDS011;29032;56.028;92.904;2023-04-25T01:43:20;7.60;;;5.47;;
42886;SDS011;29032;56.028;92.904;2023-04-25T01:48:22;8.00;;;5.57;;
42886;SDS011;29032;56.028;92.904;2023-04-25T01:53:26;7.27;;;4.57;;
42886;SDS011;29032;56.028;92.904;2023-04-25T01:58:29;8.00;;;5.30;;
42886;SDS011;29032;56.028;92.904;2023-04-25T02:03:46;5.43;;;4.55;;
42886;SDS011;29032;56.028;92.904;2023-04-25T02:20:12;8.97;;;4.67;;
42886;SDS011;29032;56.028;92.904;2023-04-25T02:25:14;6.00;;;4.30;;
42886;SDS011;29032;56.028;92.904;2023-04-25T02:30:36;7.27;;;4.93;;
42886;SDS011;29032;56.028;92.904;2023-04-25T02:35:40;7.27;;;4.93;;
42886;SDS011;29032;56.028;92.904;2023-04-25T02:46:04;9.10;;;6.63;;
42886;SDS011;29032;56.028;92.904;2023-04-25T02:51:06;9.63;;;6.87;;
42886;SDS011;29032;56.028;92.904;2023-04-25T02:56:08;10.03;;;5.97;;
42886;SDS011;29032;56.028;92.904;2023-04-25T03:01:12;11.20;;;6.77;;
42886;SDS011;29032;56.028;92.904;2023-04-25T03:06:14;6.03;;;3.90;;
42886;SDS011;29032;56.028;92.904;2023-04-25T03:11:16;7.33;;;4.53;;
42886;SDS011;29032;56.028;92.904;2023-04-25T03:16:20;4.97;;;4.00;;
42886;SDS011;29032;56.028;92.904;2023-04-25T03:26:45;2.70;;;2.50;;
42886;SDS011;29032;56.028;92.904;2023-04-25T03:31:48;3.10;;;2.00;;
42886;SDS011;29032;56.028;92.904;2023-04-25T03:36:50;3.40;;;2.63;;
42886;SDS011;29032;56.028;92.904;2023-04-25T03:41:53;4.77;;;3.03;;
42886;SDS011;29032;56.028;92.904;2023-04-25T03:46:57;6.33;;;3.20;;
42886;SDS011;29032;56.028;92.904;2023-04-25T03:51:59;7.27;;;3.73;;
42886;SDS011;29032;56.028;92.904;2023-04-25T03:57:04;6.00;;;3.63;;
42886;SDS011;29032;56.028;92.904;2023-04-25T04:08:04;5.43;;;3.93;;
42886;SDS011;29032;56.028;92.904;2023-04-25T04:13:07;7.33;;;4.30;;
42886;SDS011;29032;56.028;92.904;2023-04-25T04:18:11;7.13;;;3.80;;
42886;SDS011;29032;56.028;92.904;2023-04-25T04:23:13;8.87;;;5.00;;
42886;SDS011;29032;56.028;92.904;2023-04-25T04:28:15;10.07;;;3.90;;
42886;SDS011;29032;56.028;92.904;2023-04-25T04:33:39;9.97;;;5.10;;
42886;SDS011;29032;56.028;92.904;2023-04-25T04:38:59;8.73;;;4.30;;
42886;SDS011;29032;56.028;92.904;2023-04-25T04:44:33;8.50;;;4.93;;
42886;SDS011;29032;56.028;92.904;2023-04-25T04:50:19;14.93;;;3.83;;
42886;SDS011;29032;56.028;92.904;2023-04-25T04:55:47;2.87;;;2.10;;
42886;SDS011;29032;56.028;92.904;2023-04-25T05:01:24;6.10;;;2.67;;
42886;SDS011;29032;56.028;92.904;2023-04-25T05:07:22;7.73;;;4.97;;
42886;SDS011;29032;56.028;92.904;2023-04-25T05:12:42;8.10;;;4.87;;
42886;SDS011;29032;56.028;92.904;2023-04-25T05:18:19;13.33;;;7.50;;
42886;SDS011;29032;56.028;92.904;2023-04-25T05:23:40;9.87;;;4.57;;
42886;SDS011;29032;56.028;92.904;2023-04-25T05:29:05;8.03;;;4.57;;
42886;SDS011;29032;56.028;92.904;2023-04-25T05:34:25;12.10;;;5.70;;
42886;SDS011;29032;56.028;92.904;2023-04-25T05:39:35;10.53;;;5.53;;
42886;SDS011;29032;56.028;92.904;2023-04-25T05:44:55;5.17;;;3.40;;
42886;SDS011;29032;56.028;92.904;2023-04-25T05:50:20;4.73;;;2.50;;
42886;SDS011;29032;56.028;92.904;2023-04-25T05:55:30;2.93;;;2.30;;
42886;SDS011;29032;56.028;92.904;2023-04-25T06:00:59;5.80;;;2.47;;
42886;SDS011;29032;56.028;92.904;2023-04-25T06:06:02;2.97;;;1.87;;
42886;SDS011;29032;56.028;92.904;2023-04-25T06:11:06;3.27;;;2.70;;
42886;SDS011;29032;56.028;92.904;2023-04-25T06:16:08;3.13;;;1.90;;
42886;SDS011;29032;56.028;92.904;2023-04-25T06:21:10;3.07;;;2.33;;
42886;SDS011;29032;56.028;92.904;2023-04-25T06:26:14;3.07;;;1.90;;
42886;SDS011;29032;56.028;92.904;2023-04-25T06:31:19;4.97;;;3.10;;
42886;SDS011;29032;56.028;92.904;2023-04-25T06:36:22;6.40;;;3.43;;
42886;SDS011;29032;56.028;92.904;2023-04-25T06:41:47;7.37;;;3.47;;
42886;SDS011;29032;56.028;92.904;2023-04-25T06:47:09;7.37;;;3.90;;
42886;SDS011;29032;56.028;92.904;2023-04-25T06:52:11;10.97;;;4.77;;
42886;SDS011;29032;56.028;92.904;2023-04-25T06:57:33;3.80;;;2.30;;
42886;SDS011;29032;56.028;92.904;2023-04-25T07:03:20;3.73;;;1.87;;
42886;SDS011;29032;56.028;92.904;2023-04-25T07:08:23;5.47;;;3.57;;
42886;SDS011;29032;56.028;92.904;2023-04-25T07:19:05;5.00;;;3.00;;
42886;SDS011;29032;56.028;92.904;2023-04-25T07:24:07;4.60;;;2.10;;
42886;SDS011;29032;56.028;92.904;2023-04-25T07:29:29;9.43;;;3.60;;
42886;SDS011;29032;56.028;92.904;2023-04-25T07:34:34;9.63;;;3.40;;
42886;SDS011;29032;56.028;92.904;2023-04-25T07:39:54;4.83;;;2.60;;
42886;SDS011;29032;56.028;92.904;2023-04-25T07:45:21;7.83;;;3.23;;
42886;SDS011;29032;56.028;92.904;2023-04-25T07:50:41;5.27;;;3.20;;
42886;SDS011;29032;56.028;92.904;2023-04-25T07:55:44;6.03;;;2.20;;
42886;SDS011;29032;56.028;92.904;2023-04-25T08:01:06;4.23;;;2.43;;
42886;SDS011;29032;56.028;92.904;2023-04-25T08:06:26;8.47;;;5.67;;
42886;SDS011;29032;56.028;92.904;2023-04-25T08:11:47;6.73;;;4.33;;
42886;SDS011;29032;56.028;92.904;2023-04-25T08:22:16;9.80;;;2.30;;
42886;SDS011;29032;56.028;92.904;2023-04-25T08:27:27;4.57;;;2.07;;
42886;SDS011;29032;56.028;92.904;2023-04-25T08:32:31;5.13;;;2.43;;
42886;SDS011;29032;56.028;92.904;2023-04-25T08:37:48;4.00;;;2.20;;
42886;SDS011;29032;56.028;92.904;2023-04-25T08:42:50;6.43;;;4.00;;
42886;SDS011;29032;56.028;92.904;2023-04-25T08:47:55;7.80;;;3.37;;
42886;SDS011;29032;56.028;92.904;2023-04-25T08:52:59;5.17;;;2.50;;
42886;SDS011;29032;56.028;92.904;2023-04-25T08:58:05;7.38;;;3.45;;
42886;SDS011;29032;56.028;92.904;2023-04-25T09:03:28;7.17;;;3.00;;
42886;SDS011;29032;56.028;92.904;2023-04-25T09:08:30;4.13;;;2.30;;
42886;SDS011;29032;56.028;92.904;2023-04-25T09:13:33;5.63;;;2.67;;
42886;SDS011;29032;56.028;92.904;2023-04-25T09:19:02;5.28;;;3.08;;
42886;SDS011;29032;56.028;92.904;2023-04-25T09:24:04;7.20;;;2.60;;
42886;SDS011;29032;56.028;92.904;2023-04-25T09:29:30;6.93;;;2.40;;
42886;SDS011;29032;56.028;92.904;2023-04-25T09:35:10;5.87;;;2.03;;
42886;SDS011;29032;56.028;92.904;2023-04-25T09:40:25;5.97;;;2.90;;
42886;SDS011;29032;56.028;92.904;2023-04-25T09:45:42;3.67;;;2.00;;
42886;SDS011;29032;56.028;92.904;2023-04-25T09:50:46;3.13;;;1.60;;
42886;SDS011;29032;56.028;92.904;2023-04-25T09:56:23;5.33;;;1.73;;
42886;SDS011;29032;56.028;92.904;2023-04-25T10:01:28;5.37;;;1.83;;
42886;SDS011;29032;56.028;92.904;2023-04-25T10:07:00;5.70;;;2.77;;
42886;SDS011;29032;56.028;92.904;2023-04-25T10:12:04;5.47;;;2.27;;
42886;SDS011;29032;56.028;92.904;2023-04-25T10:17:07;9.07;;;2.80;;
42886;SDS011;29032;56.028;92.904;2023-04-25T10:22:32;5.03;;;2.20;;
42886;SDS011;29032;56.028;92.904;2023-04-25T10:27:36;5.82;;;2.42;;
42886;SDS011;29032;56.028;92.904;2023-04-25T10:32:38;4.57;;;2.20;;
42886;SDS011;29032;56.028;92.904;2023-04-25T10:48:56;7.10;;;3.43;;
42886;SDS011;29032;56.028;92.904;2023-04-25T10:54:18;5.10;;;2.20;;
42886;SDS011;29032;56.028;92.904;2023-04-25T10:59:20;10.07;;;2.70;;
42886;SDS011;29032;56.028;92.904;2023-04-25T11:04:28;8.57;;;1.90;;
42886;SDS011;29032;56.028;92.904;2023-04-25T11:20:18;4.70;;;2.40;;
42886;SDS011;29032;56.028;92.904;2023-04-25T11:25:22;4.10;;;2.13;;
42886;SDS011;29032;56.028;92.904;2023-04-25T11:30:25;5.47;;;3.27;;
42886;SDS011;29032;56.028;92.904;2023-04-25T11:35:47;4.47;;;3.10;;
42886;SDS011;29032;56.028;92.904;2023-04-25T11:40:51;7.33;;;2.90;;
42886;SDS011;29032;56.028;92.904;2023-04-25T11:45:53;10.93;;;4.53;;
42886;SDS011;29032;56.028;92.904;2023-04-25T11:50:55;5.47;;;3.17;;
42886;SDS011;29032;56.028;92.904;2023-04-25T12:01:37;5.30;;;2.97;;
42886;SDS011;29032;56.028;92.904;2023-04-25T12:06:58;6.47;;;2.70;;
42886;SDS011;29032;56.028;92.904;2023-04-25T12:12:41;3.60;;;1.95;;
42886;SDS011;29032;56.028;92.904;2023-04-25T12:23:05;8.57;;;2.07;;
42886;SDS011;29032;56.028;92.904;2023-04-25T12:28:13;4.27;;;1.83;;
42886;SDS011;29032;56.028;92.904;2023-04-25T12:33:16;4.97;;;2.17;;
42886;SDS011;29032;56.028;92.904;2023-04-25T12:38:21;4.97;;;2.50;;
42886;SDS011;29032;56.028;92.904;2023-04-25T12:43:43;6.40;;;3.30;;
42886;SDS011;29032;56.028;92.904;2023-04-25T12:48:45;7.93;;;4.03;;
42886;SDS011;29032;56.028;92.904;2023-04-25T12:53:47;7.33;;;3.40;;
42886;SDS011;29032;56.028;92.904;2023-04-25T12:58:51;5.40;;;2.50;;
42886;SDS011;29032;56.028;92.904;2023-04-25T13:04:12;5.23;;;2.60;;
42886;SDS011;29032;56.028;92.904;2023-04-25T13:09:33;5.00;;;2.83;;
42886;SDS011;29032;56.028;92.904;2023-04-25T13:14:36;5.37;;;3.00;;
42886;SDS011;29032;56.028;92.904;2023-04-25T13:19:38;6.83;;;2.87;;
42886;SDS011;29032;56.028;92.904;2023-04-25T13:24:59;6.50;;;3.40;;
42886;SDS011;29032;56.028;92.904;2023-04-25T13:30:03;6.00;;;3.03;;
42886;SDS011;29032;56.028;92.904;2023-04-25T13:35:07;10.07;;;3.60;;
42886;SDS011;29032;56.028;92.904;2023-04-25T13:40:10;9.17;;;4.57;;
42886;SDS011;29032;56.028;92.904;2023-04-25T13:45:14;8.77;;;4.10;;
42886;SDS011;29032;56.028;92.904;2023-04-25T13:50:34;14.27;;;5.00;;
42886;SDS011;29032;56.028;92.904;2023-04-25T13:55:55;8.93;;;3.63;;
42886;SDS011;29032;56.028;92.904;2023-04-25T14:00:58;4.70;;;3.27;;
42886;SDS011;29032;56.028;92.904;2023-04-25T14:06:00;5.37;;;3.13;;
42886;SDS011;29032;56.028;92.904;2023-04-25T14:16:24;8.47;;;3.47;;
42886;SDS011;29032;56.028;92.904;2023-04-25T14:21:27;7.30;;;3.30;;
42886;SDS011;29032;56.028;92.904;2023-04-25T14:26:29;6.30;;;3.00;;
42886;SDS011;29032;56.028;92.904;2023-04-25T14:31:33;6.47;;;3.20;;
42886;SDS011;29032;56.028;92.904;2023-04-25T14:36:35;7.80;;;3.63;;
42886;SDS011;29032;56.028;92.904;2023-04-25T14:41:38;8.50;;;3.43;;
42886;SDS011;29032;56.028;92.904;2023-04-25T14:46:41;5.13;;;3.17;;
42886;SDS011;29032;56.028;92.904;2023-04-25T14:51:43;10.33;;;3.70;;
42886;SDS011;29032;56.028;92.904;2023-04-25T14:56:45;11.50;;;4.10;;
42886;SDS011;29032;56.028;92.904;2023-04-25T15:02:07;4.93;;;3.20;;
42886;SDS011;29032;56.028;92.904;2023-04-25T15:07:09;4.77;;;2.53;;
42886;SDS011;29032;56.028;92.904;2023-04-25T15:12:11;4.10;;;2.63;;
42886;SDS011;29032;56.028;92.904;2023-04-25T15:17:33;9.47;;;3.53;;
42886;SDS011;29032;56.028;92.904;2023-04-25T15:22:35;9.50;;;2.63;;
42886;SDS011;29032;56.028;92.904;2023-04-25T15:27:38;4.03;;;2.37;;
42886;SDS011;29032;56.028;92.904;2023-04-25T15:32:42;4.17;;;2.00;;
42886;SDS011;29032;56.028;92.904;2023-04-25T15:37:44;5.27;;;2.20;;
42886;SDS011;29032;56.028;92.904;2023-04-25T15:42:47;4.70;;;3.07;;
42886;SDS011;29032;56.028;92.904;2023-04-25T15:47:51;5.10;;;2.30;;
42886;SDS011;29032;56.028;92.904;2023-04-25T15:53:13;3.70;;;1.60;;
42886;SDS011;29032;56.028;92.904;2023-04-25T15:58:15;2.33;;;1.47;;
42886;SDS011;29032;56.028;92.904;2023-04-25T16:03:22;5.57;;;2.10;;
42886;SDS011;29032;56.028;92.904;2023-04-25T16:08:24;7.77;;;3.57;;
42886;SDS011;29032;56.028;92.904;2023-04-25T16:13:26;6.17;;;2.60;;
42886;SDS011;29032;56.028;92.904;2023-04-25T16:23:49;7.77;;;3.40;;
42886;SDS011;29032;56.028;92.904;2023-04-25T16:28:51;9.43;;;3.70;;
42886;SDS011;29032;56.028;92.904;2023-04-25T16:34:13;6.67;;;3.37;;
42886;SDS011;29032;56.028;92.904;2023-04-25T16:39:15;8.63;;;3.53;;
42886;SDS011;29032;56.028;92.904;2023-04-25T16:44:17;6.83;;;3.20;;
42886;SDS011;29032;56.028;92.904;2023-04-25T16:49:21;7.43;;;2.47;;
42886;SDS011;29032;56.028;92.904;2023-04-25T16:54:23;3.70;;;2.40;;
42886;SDS011;29032;56.028;92.904;2023-04-25T16:59:25;7.93;;;3.03;;
42886;SDS011;29032;56.028;92.904;2023-04-25T17:04:28;3.77;;;2.13;;
42886;SDS011;29032;56.028;92.904;2023-04-25T17:09:49;2.30;;;1.80;;
42886;SDS011;29032;56.028;92.904;2023-04-25T17:15:10;3.27;;;1.60;;
42886;SDS011;29032;56.028;92.904;2023-04-25T17:20:13;3.27;;;2.00;;
42886;SDS011;29032;56.028;92.904;2023-04-25T17:25:33;3.03;;;1.53;;
42886;SDS011;29032;56.028;92.904;2023-04-25T17:35:58;2.50;;;1.50;;
42886;SDS011;29032;56.028;92.904;2023-04-25T17:41:00;1.50;;;1.20;;
42886;SDS011;29032;56.028;92.904;2023-04-25T17:46:02;2.47;;;1.60;;
42886;SDS011;29032;56.028;92.904;2023-04-25T17:51:06;1.47;;;1.30;;
42886;SDS011;29032;56.028;92.904;2023-04-25T17:56:08;1.70;;;1.20;;
42886;SDS011;29032;56.028;92.904;2023-04-25T18:01:10;2.83;;;1.50;;
42886;SDS011;29032;56.028;92.904;2023-04-25T18:06:32;2.43;;;2.13;;
42886;SDS011;29032;56.028;92.904;2023-04-25T18:11:34;4.23;;;1.90;;
42886;SDS011;29032;56.028;92.904;2023-04-25T18:16:36;2.90;;;1.60;;
42886;SDS011;29032;56.028;92.904;2023-04-25T18:21:39;3.90;;;2.20;;
42886;SDS011;29032;56.028;92.904;2023-04-25T18:27:00;2.67;;;1.60;;
42886;SDS011;29032;56.028;92.904;2023-04-25T18:32:02;4.23;;;1.97;;
42886;SDS011;29032;56.028;92.904;2023-04-25T18:37:05;3.27;;;2.10;;
42886;SDS011;29032;56.028;92.904;2023-04-25T18:47:28;1.77;;;1.60;;
42886;SDS011;29032;56.028;92.904;2023-04-25T18:52:31;3.47;;;2.00;;
42886;SDS011;29032;56.028;92.904;2023-04-25T18:58:10;5.27;;;2.47;;
42886;SDS011;29032;56.028;92.904;2023-04-25T19:03:31;4.87;;;1.80;;
42886;SDS011;29032;56.028;92.904;2023-04-25T19:08:52;2.90;;;1.83;;
42886;SDS011;29032;56.028;92.904;2023-04-25T19:19:16;1.40;;;1.20;;
42886;SDS011;29032;56.028;92.904;2023-04-25T19:24:19;2.13;;;1.60;;
42886;SDS011;29032;56.028;92.904;2023-04-25T19:34:41;3.70;;;1.80;;
42886;SDS011;29032;56.028;92.904;2023-04-25T19:40:03;1.57;;;1.30;;
42886;SDS011;29032;56.028;92.904;2023-04-25T19:45:06;1.50;;;1.20;;
42886;SDS011;29032;56.028;92.904;2023-04-25T19:50:09;4.10;;;1.83;;
42886;SDS011;29032;56.028;92.904;2023-04-25T19:55:13;3.37;;;2.10;;
42886;SDS011;29032;56.028;92.904;2023-04-25T20:05:35;3.57;;;2.17;;
42886;SDS011;29032;56.028;92.904;2023-04-25T20:10:39;5.37;;;3.80;;
42886;SDS011;29032;56.028;92.904;2023-04-25T20:15:41;5.20;;;2.60;;
42886;SDS011;29032;56.028;92.904;2023-04-25T20:20:43;4.97;;;2.10;;
42886;SDS011;29032;56.028;92.904;2023-04-25T20:25:47;3.87;;;1.90;;
42886;SDS011;29032;56.028;92.904;2023-04-25T20:30:49;2.83;;;1.20;;
42886;SDS011;29032;56.028;92.904;2023-04-25T20:35:51;2.83;;;1.30;;
42886;SDS011;29032;56.028;92.904;2023-04-25T20:40:54;2.17;;;1.43;;
42886;SDS011;29032;56.028;92.904;2023-04-25T20:45:56;2.53;;;1.30;;
42886;SDS011;29032;56.028;92.904;2023-04-25T20:50:59;1.50;;;1.30;;
42886;SDS011;29032;56.028;92.904;2023-04-25T20:56:03;3.27;;;1.90;;
42886;SDS011;29032;56.028;92.904;2023-04-25T21:01:05;2.03;;;1.30;;
42886;SDS011;29032;56.028;92.904;2023-04-25T21:06:07;2.43;;;1.20;;
42886;SDS011;29032;56.028;92.904;2023-04-25T21:11:11;2.20;;;1.33;;
42886;SDS011;29032;56.028;92.904;2023-04-25T21:16:13;2.13;;;1.10;;
42886;SDS011;29032;56.028;92.904;2023-04-25T21:21:33;1.53;;;1.10;;
42886;SDS011;29032;56.028;92.904;2023-04-25T21:26:55;1.23;;;1.10;;
42886;SDS011;29032;56.028;92.904;2023-04-25T21:31:57;1.43;;;1.10;;
42886;SDS011;29032;56.028;92.904;2023-04-25T21:36:59;2.27;;;1.30;;
42886;SDS011;29032;56.028;92.904;2023-04-25T21:42:02;2.37;;;1.30;;
42886;SDS011;29032;56.028;92.904;2023-04-25T21:47:05;0.97;;;0.80;;
42886;SDS011;29032;56.028;92.904;2023-04-25T21:57:47;0.80;;;0.80;;
42886;SDS011;29032;56.028;92.904;2023-04-25T22:02:49;0.60;;;0.60;;
42886;SDS011;29032;56.028;92.904;2023-04-25T22:07:52;1.73;;;0.80;;
42886;SDS011;29032;56.028;92.904;2023-04-25T22:12:56;0.83;;;0.83;;
42886;SDS011;29032;56.028;92.904;2023-04-25T22:17:59;0.93;;;0.80;;
42886;SDS011;29032;56.028;92.904;2023-04-25T22:23:01;3.80;;;2.33;;
42886;SDS011;29032;56.028;92.904;2023-04-25T22:28:04;2.80;;;1.63;;
42886;SDS011;29032;56.028;92.904;2023-04-25T22:33:06;2.70;;;1.63;;
42886;SDS011;29032;56.028;92.904;2023-04-25T22:38:26;1.77;;;1.27;;
42886;SDS011;29032;56.028;92.904;2023-04-25T22:43:30;1.87;;;1.17;;
42886;SDS011;29032;56.028;92.904;2023-04-25T22:48:32;1.97;;;1.20;;
42886;SDS011;29032;56.028;92.904;2023-04-25T22:53:34;1.47;;;1.30;;
42886;SDS011;29032;56.028;92.904;2023-04-25T22:58:37;1.53;;;1.30;;
42886;SDS011;29032;56.028;92.904;2023-04-25T23:03:39;1.30;;;1.20;;
42886;SDS011;29032;56.028;92.904;2023-04-25T23:08:41;2.47;;;1.70;;
42886;SDS011;29032;56.028;92.904;2023-04-25T23:13:45;4.03;;;2.50;;
42886;SDS011;29032;56.028;92.904;2023-04-25T23:19:05;2.77;;;2.40;;
42886;SDS011;29032;56.028;92.904;2023-04-25T23:24:07;7.13;;;3.87;;
42886;SDS011;29032;56.028;92.904;2023-04-25T23:29:11;9.07;;;5.00;;
42886;SDS011;29032;56.028;92.904;2023-04-25T23:34:13;7.43;;;3.97;;
42886;SDS011;29032;56.028;92.904;2023-04-25T23:44:37;6.17;;;3.83;;
42886;SDS011;29032;56.028;92.904;2023-04-25T23:49:39;8.17;;;5.00;;
42886;SDS011;29032;56.028;92.904;2023-04-25T23:54:41;7.83;;;5.20;;
42886;SDS011;29032;56.028;92.904;2023-04-25T23:59:44;6.77;;;4.27;;
